Little Rissington, United Kingdom
Current Conditions -  °F | °C
As of 7:50 PM on Sunday 23 Nov 2014 (Local Time) from EGVN Reporting Station
Clear Clear  
Wind Chill: 38°   Ceiling: Unl
Heat Index: 41°   Visibility: 6mi
Dew Point: 37°   Wind: 5mph
Humidity: 87%   Direction: 290°WNW
Pressure: 30.12"   Gusts: NA
Location:  51.87°N, 1.68°W
Report Text: EGVN 231950Z 29004KT CAVOK 05/03 Q1020 NOSIG
Loading
Personal Weather Stations






























Interactive Weather Map New forecast layout! Learn more

10-Day Weather Forecast

Advertisements
Track Severe Weather on mobile